Accueil
METAR-TAF:

METAR-TAF

Aéroports :

Monte Argentario, Italie

latitude: 42-23N, longitude: 011-10E, altitude: 630 m

Observation

Le bulletin a été fait il y a 38 minutes, à 06:55 UTC
Vent 10 kt de sud-ouest
Température 22°C
Humidité 100%
Pression 1019 hPa
Visibilité inférieure à 50 m
brouillard

METAR: LIQO 270655Z 22010KT 0000 FG VV/// 22/22 Q1019 RMK VAL INVIS NC VIS MIN 0000

Heure: 09:33 (07:33 UTC)


TAF: absent

Observations et prévisions météorologiques de plus de 4000 aéroports (messages METAR et TAF).

Les stations disponibles sont représentées par des disques jaunes et rouges sur la carte.

Passer la souris dessus pour voir le nom de la station.

Cliquer dessus pour voir les observations et prévisions météorologiques.

Pour changer de carte: cliquez sur les boutons verts avec une croix noire pour zoomer, sur le bouton vert avec un tiret pour effectuer un zoom arrière, ou sur les flèches vertes pour les cartes adjacentes.


METAR-TAF: